Time;durP1;ratioP1;P1;durP2;ratioP2;P2;SDS_P1;SDS_P2;PMS_P1;PMS_P2;Temp;Humidity;BMP_temperature;BMP_pressure;BME280_temperature;BME280_humidity;BME280_pressure;Samples;Min_cycle;Max_cycle;Signal;HPM_P1;HPM_P2
2024/03/06 00:00:13;;;;;;;2.70;1.25;;;;;;;;;;2080550;28;20092;-44
2024/03/06 00:01:14;;;;;;;3.15;1.33;;;;;;;;;;2072122;28;20089;-45
2024/03/06 00:02:16;;;;;;;3.42;1.20;;;;;;;;;;2074471;28;20084;-45
2024/03/06 00:03:18;;;;;;;2.97;1.10;;;;;;;;;;2080757;28;20426;-45
2024/03/06 00:04:19;;;;;;;2.33;1.30;;;;;;;;;;2076335;28;20073;-45
2024/03/06 00:05:21;;;;;;;3.45;1.08;;;;;;;;;;2074262;28;20494;-46
2024/03/06 00:06:22;;;;;;;5.68;1.30;;;;;;;;;;2080051;28;20072;-45
2024/03/06 00:07:23;;;;;;;3.85;1.30;;;;;;;;;;2083721;28;20122;-45
2024/03/06 00:08:25;;;;;;;2.65;1.10;;;;;;;;;;2088042;28;20071;-44
2024/03/06 00:09:29;;;;;;;3.83;1.20;;;;;;;;;;2080889;28;20020;-45
2024/03/06 00:10:31;;;;;;;3.22;1.25;;;;;;;;;;2083968;28;20071;-44
2024/03/06 00:11:32;;;;;;;3.00;1.10;;;;;;;;;;2086096;28;20466;-44
2024/03/06 00:12:34;;;;;;;2.97;1.08;;;;;;;;;;2080567;28;20024;-45
2024/03/06 00:13:35;;;;;;;2.95;1.23;;;;;;;;;;2080693;28;20037;-44
2024/03/06 00:14:36;;;;;;;3.83;1.52;;;;;;;;;;2080569;28;20022;-44
2024/03/06 00:15:39;;;;;;;4.45;1.23;;;;;;;;;;2080209;28;20097;-44
2024/03/06 00:16:41;;;;;;;4.43;1.45;;;;;;;;;;2079963;28;20045;-44
2024/03/06 00:17:42;;;;;;;6.43;1.95;;;;;;;;;;2079997;28;20033;-45
2024/03/06 00:18:43;;;;;;;3.80;2.08;;;;;;;;;;2080765;28;20487;-46
2024/03/06 00:19:45;;;;;;;2.58;1.30;;;;;;;;;;2080791;28;20108;-44
2024/03/06 00:20:46;;;;;;;3.10;1.40;;;;;;;;;;2080968;28;20388;-46
2024/03/06 00:21:47;;;;;;;3.17;1.50;;;;;;;;;;2080453;28;20029;-45
2024/03/06 00:22:49;;;;;;;4.10;1.42;;;;;;;;;;2080899;28;20024;-46
2024/03/06 00:23:50;;;;;;;5.63;1.60;;;;;;;;;;2080367;28;20068;-53
2024/03/06 00:24:52;;;;;;;3.17;1.40;;;;;;;;;;2078684;28;20041;-47
2024/03/06 00:25:53;;;;;;;4.03;1.48;;;;;;;;;;2072802;28;20032;-52
2024/03/06 00:26:54;;;;;;;3.00;1.50;;;;;;;;;;2078361;28;20014;-52
2024/03/06 00:27:56;;;;;;;4.72;1.60;;;;;;;;;;2080622;28;20018;-53
2024/03/06 00:28:57;;;;;;;6.43;1.70;;;;;;;;;;2080333;28;20026;-48
2024/03/06 00:29:58;;;;;;;3.60;1.52;;;;;;;;;;2080342;28;20047;-52
2024/03/06 00:31:00;;;;;;;4.07;1.85;;;;;;;;;;2072894;28;20049;-53
2024/03/06 00:32:01;;;;;;;3.45;1.30;;;;;;;;;;2077251;28;20014;-52
2024/03/06 00:33:02;;;;;;;3.08;1.60;;;;;;;;;;2074047;28;20036;-47
2024/03/06 00:34:04;;;;;;;5.72;1.30;;;;;;;;;;2079827;28;20048;-52
2024/03/06 00:35:06;;;;;;;3.17;1.40;;;;;;;;;;2086792;28;20033;-50
2024/03/06 00:36:07;;;;;;;3.58;1.30;;;;;;;;;;2084656;28;20021;-49
2024/03/06 00:37:10;;;;;;;2.47;1.23;;;;;;;;;;2080231;28;20033;-51
2024/03/06 00:38:11;;;;;;;2.55;1.13;;;;;;;;;;2079579;28;20009;-51
2024/03/06 00:39:15;;;;;;;1.75;1.30;;;;;;;;;;2080945;28;20025;-45
2024/03/06 00:40:18;;;;;;;3.50;1.27;;;;;;;;;;2080664;28;20375;-49
2024/03/06 00:41:19;;;;;;;4.22;1.13;;;;;;;;;;2080454;28;20021;-51
2024/03/06 00:42:20;;;;;;;3.83;1.35;;;;;;;;;;2080678;28;20380;-52
2024/03/06 00:43:22;;;;;;;2.67;1.30;;;;;;;;;;2080537;28;20467;-51
2024/03/06 00:44:23;;;;;;;5.00;1.10;;;;;;;;;;2080901;28;20025;-48
2024/03/06 00:45:25;;;;;;;4.40;1.48;;;;;;;;;;2078796;28;20014;-51
2024/03/06 00:46:26;;;;;;;3.40;1.10;;;;;;;;;;2079897;28;20033;-50
2024/03/06 00:47:27;;;;;;;3.80;1.25;;;;;;;;;;2080712;28;20053;-51
2024/03/06 00:48:29;;;;;;;3.22;1.10;;;;;;;;;;2079197;28;20041;-51
2024/03/06 00:49:31;;;;;;;2.00;1.10;;;;;;;;;;2077494;28;20048;-53
2024/03/06 00:50:32;;;;;;;4.63;1.40;;;;;;;;;;2079334;28;20161;-50
2024/03/06 00:51:36;;;;;;;3.58;1.60;;;;;;;;;;2080594;28;20502;-46
2024/03/06 00:52:39;;;;;;;3.67;1.50;;;;;;;;;;2080910;28;20076;-53
2024/03/06 00:53:40;;;;;;;2.50;1.48;;;;;;;;;;2080273;28;20026;-50
2024/03/06 00:54:41;;;;;;;3.92;1.60;;;;;;;;;;2080274;28;20028;-51
2024/03/06 00:55:43;;;;;;;3.53;1.42;;;;;;;;;;2080778;28;20025;-51
2024/03/06 00:56:44;;;;;;;2.85;1.42;;;;;;;;;;2080570;28;20053;-47
2024/03/06 00:57:45;;;;;;;3.28;1.50;;;;;;;;;;2080787;28;20025;-51
2024/03/06 00:58:47;;;;;;;4.30;1.40;;;;;;;;;;2080776;28;20058;-51
2024/03/06 00:59:48;;;;;;;3.35;1.17;;;;;;;;;;2081000;28;20092;-51
2024/03/06 01:00:49;;;;;;;3.20;1.30;;;;;;;;;;2080574;28;20017;-49
2024/03/06 01:01:51;;;;;;;3.83;1.55;;;;;;;;;;2080259;28;20044;-45
2024/03/06 01:02:52;;;;;;;2.60;1.50;;;;;;;;;;2080634;28;20049;-49
2024/03/06 01:03:54;;;;;;;4.60;1.55;;;;;;;;;;2080517;28;20025;-48
2024/03/06 01:04:56;;;;;;;2.90;1.60;;;;;;;;;;2080837;28;20040;-50
2024/03/06 01:05:57;;;;;;;2.58;1.30;;;;;;;;;;2080570;28;20017;-45
2024/03/06 01:06:58;;;;;;;4.00;1.50;;;;;;;;;;2080095;28;20388;-44
2024/03/06 01:08:00;;;;;;;4.63;1.27;;;;;;;;;;2080693;28;20540;-45
2024/03/06 01:09:01;;;;;;;3.10;1.20;;;;;;;;;;2079749;28;20478;-44
2024/03/06 01:10:02;;;;;;;3.25;1.30;;;;;;;;;;2079966;28;20100;-44
2024/03/06 01:11:05;;;;;;;3.53;1.33;;;;;;;;;;2088854;28;20530;-45
2024/03/06 01:12:06;;;;;;;5.38;1.40;;;;;;;;;;2081397;28;20030;-44
2024/03/06 01:13:10;;;;;;;3.88;1.45;;;;;;;;;;2080738;28;20021;-44
2024/03/06 01:14:12;;;;;;;3.55;1.35;;;;;;;;;;2080363;28;20031;-52
2024/03/06 01:15:13;;;;;;;2.58;1.35;;;;;;;;;;2080491;28;20018;-51
2024/03/06 01:16:14;;;;;;;4.50;1.55;;;;;;;;;;2080615;28;20381;-50
2024/03/06 01:17:16;;;;;;;6.03;1.50;;;;;;;;;;2080284;28;20116;-50
2024/03/06 01:18:17;;;;;;;3.63;1.20;;;;;;;;;;2080414;28;20026;-52
2024/03/06 01:19:18;;;;;;;5.28;1.80;;;;;;;;;;2071845;28;20028;-54
2024/03/06 01:20:20;;;;;;;5.20;1.77;;;;;;;;;;2066582;28;20018;-52
2024/03/06 01:21:21;;;;;;;4.40;1.83;;;;;;;;;;2072109;28;20049;-52
2024/03/06 01:22:22;;;;;;;4.22;1.90;;;;;;;;;;2071852;28;20030;-53
2024/03/06 01:23:23;;;;;;;5.95;2.13;;;;;;;;;;2075871;28;20531;-50
2024/03/06 01:24:25;;;;;;;3.03;1.40;;;;;;;;;;2080589;28;20025;-52
2024/03/06 01:25:26;;;;;;;3.13;1.70;;;;;;;;;;2080678;28;20040;-50
2024/03/06 01:26:28;;;;;;;2.33;1.40;;;;;;;;;;2082443;28;20029;-52
2024/03/06 01:27:29;;;;;;;7.50;1.55;;;;;;;;;;2089890;28;20488;-51
2024/03/06 01:28:30;;;;;;;4.63;1.33;;;;;;;;;;2083731;28;20010;-52
2024/03/06 01:29:32;;;;;;;2.55;1.55;;;;;;;;;;2080883;28;20020;-51
2024/03/06 01:30:33;;;;;;;2.47;1.33;;;;;;;;;;2082079;28;20522;-51
2024/03/06 01:31:35;;;;;;;3.67;1.85;;;;;;;;;;2080199;28;20461;-51
2024/03/06 01:32:37;;;;;;;3.58;1.50;;;;;;;;;;2082005;28;20128;-44
2024/03/06 01:33:38;;;;;;;4.82;1.55;;;;;;;;;;2081968;28;20530;-42
2024/03/06 01:34:39;;;;;;;4.60;1.90;;;;;;;;;;2082010;28;20013;-44
2024/03/06 01:35:40;;;;;;;2.55;1.38;;;;;;;;;;2081474;28;20119;-41
2024/03/06 01:36:42;;;;;;;4.18;1.48;;;;;;;;;;2081224;28;20018;-42
2024/03/06 01:37:43;;;;;;;3.53;1.50;;;;;;;;;;2081729;28;20025;-41
2024/03/06 01:38:45;;;;;;;2.97;1.70;;;;;;;;;;2082060;28;20029;-42
2024/03/06 01:39:47;;;;;;;4.25;1.67;;;;;;;;;;2081601;28;20025;-42
2024/03/06 01:40:48;;;;;;;4.05;1.50;;;;;;;;;;2081920;28;20013;-42
2024/03/06 01:41:50;;;;;;;3.15;1.30;;;;;;;;;;2081162;28;20504;-43
2024/03/06 01:42:51;;;;;;;2.90;1.48;;;;;;;;;;2081153;28;20028;-42
2024/03/06 01:43:53;;;;;;;4.00;1.58;;;;;;;;;;2081930;28;20163;-42
2024/03/06 01:44:54;;;;;;;3.50;1.60;;;;;;;;;;2080635;28;20095;-43
2024/03/06 01:45:55;;;;;;;2.72;1.42;;;;;;;;;;2081214;28;20009;-42
2024/03/06 01:46:57;;;;;;;5.25;1.80;;;;;;;;;;2081350;28;20030;-46
2024/03/06 01:47:58;;;;;;;3.83;1.80;;;;;;;;;;2080851;28;20014;-42
2024/03/06 01:49:00;;;;;;;3.17;1.45;;;;;;;;;;2081197;28;20151;-43
2024/03/06 01:50:01;;;;;;;4.07;1.73;;;;;;;;;;2080909;28;20454;-44
2024/03/06 01:51:04;;;;;;;4.00;1.73;;;;;;;;;;2081105;28;20037;-42
2024/03/06 01:52:06;;;;;;;3.65;1.60;;;;;;;;;;2081553;28;20087;-43
2024/03/06 01:53:09;;;;;;;2.60;1.52;;;;;;;;;;2081953;28;20033;-44
2024/03/06 01:54:10;;;;;;;3.25;1.60;;;;;;;;;;2081787;28;20076;-43
2024/03/06 01:55:12;;;;;;;4.18;1.40;;;;;;;;;;2082107;28;20021;-43
2024/03/06 01:56:17;;;;;;;5.53;1.65;;;;;;;;;;2080533;28;20545;-43
2024/03/06 01:57:20;;;;;;;3.33;1.45;;;;;;;;;;2081675;28;20479;-43
2024/03/06 01:58:21;;;;;;;2.97;1.58;;;;;;;;;;2081888;28;20032;-44
2024/03/06 01:59:25;;;;;;;4.28;1.67;;;;;;;;;;2081802;28;20014;-43
2024/03/06 02:00:28;;;;;;;3.70;1.83;;;;;;;;;;2081332;28;20021;-44
2024/03/06 02:01:29;;;;;;;2.55;1.42;;;;;;;;;;2081735;28;20033;-43
2024/03/06 02:02:31;;;;;;;2.75;1.67;;;;;;;;;;2081389;28;20064;-43
2024/03/06 02:03:33;;;;;;;2.75;1.45;;;;;;;;;;2080535;28;20018;-43
2024/03/06 02:04:34;;;;;;;4.55;2.67;;;;;;;;;;2079929;28;20022;-44
2024/03/06 02:05:35;;;;;;;7.82;5.80;;;;;;;;;;2076805;28;20026;-43
2024/03/06 02:06:41;;;;;;;15.40;13.35;;;;;;;;;;2079793;28;20045;-43
2024/03/06 02:07:43;;;;;;;19.70;15.88;;;;;;;;;;2079448;28;20018;-43
2024/03/06 02:08:44;;;;;;;30.08;21.90;;;;;;;;;;2076224;28;20798;-42
2024/03/06 02:09:48;;;;;;;35.95;28.02;;;;;;;;;;2081070;28;20546;-43
2024/03/06 02:10:49;;;;;;;36.00;27.73;;;;;;;;;;2080392;28;20038;-43
2024/03/06 02:11:51;;;;;;;34.53;24.92;;;;;;;;;;2081337;28;20095;-44
2024/03/06 02:12:54;;;;;;;34.10;25.92;;;;;;;;;;2078696;28;20109;-43
2024/03/06 02:13:55;;;;;;;36.22;24.40;;;;;;;;;;2081631;28;20048;-44
2024/03/06 02:14:57;;;;;;;29.20;22.30;;;;;;;;;;2076836;28;20025;-41
2024/03/06 02:16:00;;;;;;;22.70;18.85;;;;;;;;;;2080051;28;20033;-45
2024/03/06 02:17:01;;;;;;;24.30;18.35;;;;;;;;;;2081014;28;20021;-44
2024/03/06 02:18:06;;;;;;;20.95;16.67;;;;;;;;;;2081482;28;20045;-44
2024/03/06 02:19:09;;;;;;;22.20;16.13;;;;;;;;;;2081830;28;20029;-42
2024/03/06 02:20:12;;;;;;;23.40;15.57;;;;;;;;;;2081314;28;20040;-43
2024/03/06 02:21:13;;;;;;;22.90;15.25;;;;;;;;;;2081041;28;20035;-43
2024/03/06 02:22:15;;;;;;;22.60;15.25;;;;;;;;;;2078859;28;20101;-43
2024/03/06 02:23:21;;;;;;;18.85;15.55;;;;;;;;;;2075672;28;20026;-44
2024/03/06 02:24:23;;;;;;;23.70;16.30;;;;;;;;;;2073046;28;20365;-43
2024/03/06 02:25:26;;;;;;;24.55;16.52;;;;;;;;;;2080957;28;20096;-44
2024/03/06 02:26:27;;;;;;;22.52;16.77;;;;;;;;;;2081613;28;20026;-41
2024/03/06 02:27:28;;;;;;;25.45;17.95;;;;;;;;;;2083521;28;20387;-42
2024/03/06 02:28:31;;;;;;;26.00;17.05;;;;;;;;;;2087020;28;20021;-42
2024/03/06 02:29:35;;;;;;;28.98;18.55;;;;;;;;;;2081643;28;20021;-42
2024/03/06 02:30:36;;;;;;;28.52;19.55;;;;;;;;;;2081556;28;20056;-41
2024/03/06 02:31:39;;;;;;;24.77;19.15;;;;;;;;;;2081735;28;20017;-41
2024/03/06 02:32:42;;;;;;;27.95;19.48;;;;;;;;;;2081116;28;20380;-42
2024/03/06 02:33:47;;;;;;;32.80;21.65;;;;;;;;;;2081784;28;20556;-42
2024/03/06 02:34:48;;;;;;;35.83;21.70;;;;;;;;;;2078268;28;20017;-42
2024/03/06 02:35:50;;;;;;;30.60;21.50;;;;;;;;;;2080081;28;20021;-42
2024/03/06 02:36:52;;;;;;;30.85;19.17;;;;;;;;;;2081093;28;20074;-44
2024/03/06 02:37:56;;;;;;;33.03;18.55;;;;;;;;;;2080393;28;20049;-41
2024/03/06 02:38:59;;;;;;;21.33;14.15;;;;;;;;;;2081172;28;20023;-42
2024/03/06 02:40:01;;;;;;;20.13;11.77;;;;;;;;;;2081568;28;20041;-45
2024/03/06 02:41:06;;;;;;;12.68;8.73;;;;;;;;;;2079722;28;20041;-43
2024/03/06 02:42:07;;;;;;;15.68;8.02;;;;;;;;;;2081601;28;20029;-44
2024/03/06 02:43:08;;;;;;;11.43;7.30;;;;;;;;;;2080646;28;20036;-44
2024/03/06 02:44:11;;;;;;;10.43;6.05;;;;;;;;;;2081323;28;20024;-42
2024/03/06 02:45:12;;;;;;;6.35;3.47;;;;;;;;;;2081603;28;20383;-43
2024/03/06 02:46:13;;;;;;;6.55;3.30;;;;;;;;;;2080862;28;20036;-42
2024/03/06 02:47:16;;;;;;;8.25;2.83;;;;;;;;;;2081955;28;20052;-41
2024/03/06 02:48:17;;;;;;;6.95;2.50;;;;;;;;;;2089771;28;20049;-42
2024/03/06 02:49:19;;;;;;;4.78;2.47;;;;;;;;;;2084379;28;20045;-43
2024/03/06 02:50:23;;;;;;;3.10;1.95;;;;;;;;;;2080500;28;20055;-44
2024/03/06 02:51:24;;;;;;;3.78;2.10;;;;;;;;;;2081577;28;20037;-41
2024/03/06 02:52:25;;;;;;;3.78;1.92;;;;;;;;;;2081337;28;20376;-42
2024/03/06 02:53:27;;;;;;;3.95;1.70;;;;;;;;;;2081529;28;20045;-43
2024/03/06 02:54:29;;;;;;;3.40;1.88;;;;;;;;;;2072387;28;20025;-43
2024/03/06 02:55:30;;;;;;;4.20;1.45;;;;;;;;;;2072513;28;20025;-44
2024/03/06 02:56:32;;;;;;;3.88;2.10;;;;;;;;;;2073334;28;20030;-41
2024/03/06 02:57:33;;;;;;;3.38;1.83;;;;;;;;;;2079147;28;20032;-43
2024/03/06 02:58:35;;;;;;;3.97;1.90;;;;;;;;;;2080693;28;20021;-44
2024/03/06 02:59:43;;;;;;;4.28;1.20;;;;;;;;;;2073409;28;20029;-44
2024/03/06 03:00:44;;;;;;;3.97;1.40;;;;;;;;;;2077836;28;20021;-43
2024/03/06 03:01:46;;;;;;;2.75;1.60;;;;;;;;;;2081374;28;20139;-43
2024/03/06 03:02:48;;;;;;;3.05;1.33;;;;;;;;;;2079422;28;20511;-44
2024/03/06 03:03:51;;;;;;;5.03;1.45;;;;;;;;;;2071870;28;20042;-43
2024/03/06 03:04:52;;;;;;;4.30;1.40;;;;;;;;;;2080470;28;20047;-44
2024/03/06 03:05:54;;;;;;;3.53;1.30;;;;;;;;;;2081135;28;20108;-43
2024/03/06 03:06:55;;;;;;;4.78;1.60;;;;;;;;;;2081192;28;20021;-43
2024/03/06 03:07:57;;;;;;;3.75;1.63;;;;;;;;;;2081282;28;20017;-42
2024/03/06 03:08:59;;;;;;;4.65;1.60;;;;;;;;;;2080917;28;20100;-43
2024/03/06 03:10:00;;;;;;;2.10;1.25;;;;;;;;;;2080300;28;20571;-49
2024/03/06 03:11:02;;;;;;;2.00;1.30;;;;;;;;;;2089072;28;20008;-51
2024/03/06 03:12:04;;;;;;;2.03;1.33;;;;;;;;;;2085349;28;20104;-49
2024/03/06 03:13:05;;;;;;;4.13;1.60;;;;;;;;;;2081441;28;20012;-50
2024/03/06 03:14:07;;;;;;;3.50;1.23;;;;;;;;;;2081056;28;20021;-51
2024/03/06 03:15:08;;;;;;;2.47;1.08;;;;;;;;;;2080451;28;20048;-49
2024/03/06 03:16:17;;;;;;;5.10;1.55;;;;;;;;;;2080367;28;20037;-48
2024/03/06 03:17:20;;;;;;;4.38;1.38;;;;;;;;;;2081124;28;20387;-50
2024/03/06 03:18:21;;;;;;;4.22;1.17;;;;;;;;;;2080218;28;20488;-51
2024/03/06 03:19:22;;;;;;;2.70;1.30;;;;;;;;;;2078068;28;20039;-51
2024/03/06 03:20:25;;;;;;;3.28;1.65;;;;;;;;;;2068902;28;20041;-49
2024/03/06 03:21:26;;;;;;;3.72;1.50;;;;;;;;;;2069133;28;20018;-49
2024/03/06 03:22:28;;;;;;;4.20;1.65;;;;;;;;;;2083809;28;20131;-50
2024/03/06 03:23:29;;;;;;;3.33;1.60;;;;;;;;;;2081132;28;20021;-47
2024/03/06 03:24:31;;;;;;;4.22;1.65;;;;;;;;;;2080059;28;20164;-50
2024/03/06 03:25:33;;;;;;;2.65;1.35;;;;;;;;;;2081067;28;20388;-50
2024/03/06 03:26:36;;;;;;;3.90;1.60;;;;;;;;;;2081136;28;20021;-50
2024/03/06 03:27:38;;;;;;;3.05;1.40;;;;;;;;;;2080228;28;20033;-49
2024/03/06 03:28:39;;;;;;;3.53;1.40;;;;;;;;;;2079442;28;20018;-49
2024/03/06 03:29:41;;;;;;;3.70;1.23;;;;;;;;;;2080207;28;20132;-49
2024/03/06 03:30:45;;;;;;;3.15;1.45;;;;;;;;;;2080335;28;20507;-50
2024/03/06 03:31:46;;;;;;;4.22;1.77;;;;;;;;;;2071921;28;20017;-48
2024/03/06 03:32:51;;;;;;;2.65;1.40;;;;;;;;;;2076194;28;20061;-49
2024/03/06 03:33:52;;;;;;;3.63;1.40;;;;;;;;;;2077636;28;20052;-48
2024/03/06 03:34:53;;;;;;;3.40;1.48;;;;;;;;;;2080156;28;20018;-50
2024/03/06 03:35:55;;;;;;;2.80;1.45;;;;;;;;;;2080978;28;20028;-46
2024/03/06 03:36:56;;;;;;;4.53;1.35;;;;;;;;;;2080010;28;20036;-48
2024/03/06 03:37:57;;;;;;;3.22;1.33;;;;;;;;;;2080513;28;20033;-51
2024/03/06 03:38:59;;;;;;;3.97;1.27;;;;;;;;;;2079906;28;20440;-49
2024/03/06 03:40:00;;;;;;;1.83;1.33;;;;;;;;;;2081222;28;20041;-49
2024/03/06 03:41:03;;;;;;;3.42;1.35;;;;;;;;;;2080159;28;20112;-47
2024/03/06 03:42:06;;;;;;;3.33;1.40;;;;;;;;;;2081160;28;20383;-48
2024/03/06 03:43:07;;;;;;;2.97;1.50;;;;;;;;;;2080311;28;20067;-48
2024/03/06 03:44:08;;;;;;;4.22;1.48;;;;;;;;;;2080250;28;20092;-47
2024/03/06 03:45:10;;;;;;;3.00;1.38;;;;;;;;;;2081219;28;20067;-49
2024/03/06 03:46:11;;;;;;;2.05;1.20;;;;;;;;;;2080976;28;20021;-49
2024/03/06 03:47:12;;;;;;;3.47;1.42;;;;;;;;;;2079704;28;20018;-49
2024/03/06 03:48:15;;;;;;;4.60;1.50;;;;;;;;;;2073819;28;20052;-47
2024/03/06 03:49:16;;;;;;;2.78;1.40;;;;;;;;;;2080051;28;20079;-47
2024/03/06 03:50:17;;;;;;;4.00;1.25;;;;;;;;;;2080685;28;20368;-48
2024/03/06 03:51:19;;;;;;;3.38;1.42;;;;;;;;;;2081074;28;20017;-48
2024/03/06 03:52:20;;;;;;;2.45;1.58;;;;;;;;;;2080346;28;20534;-48
2024/03/06 03:53:21;;;;;;;2.35;1.25;;;;;;;;;;2080516;28;20018;-48
2024/03/06 03:54:24;;;;;;;4.38;1.73;;;;;;;;;;2080128;28;20025;-50
2024/03/06 03:55:25;;;;;;;4.47;1.55;;;;;;;;;;2081017;28;20017;-49
2024/03/06 03:56:27;;;;;;;2.35;1.42;;;;;;;;;;2079626;28;20033;-48
2024/03/06 03:57:30;;;;;;;2.85;1.50;;;;;;;;;;2080358;28;20013;-49
2024/03/06 03:58:31;;;;;;;3.33;1.58;;;;;;;;;;2081127;28;20099;-48
2024/03/06 03:59:33;;;;;;;2.70;1.45;;;;;;;;;;2080474;28;20471;-48
2024/03/06 04:00:34;;;;;;;3.00;1.30;;;;;;;;;;2080314;28;20395;-48
2024/03/06 04:01:35;;;;;;;5.22;1.65;;;;;;;;;;2087715;28;20088;-48
2024/03/06 04:02:38;;;;;;;2.42;1.30;;;;;;;;;;2085250;28;20061;-46
2024/03/06 04:03:42;;;;;;;3.67;1.50;;;;;;;;;;2080076;28;20026;-49
2024/03/06 04:04:43;;;;;;;2.95;1.10;;;;;;;;;;2081063;28;20371;-49
2024/03/06 04:05:44;;;;;;;3.22;1.35;;;;;;;;;;2080154;28;20026;-48
2024/03/06 04:06:47;;;;;;;3.33;1.50;;;;;;;;;;2081070;28;20056;-43
2024/03/06 04:07:49;;;;;;;2.55;1.70;;;;;;;;;;2080176;28;20018;-48
2024/03/06 04:08:51;;;;;;;3.85;1.58;;;;;;;;;;2080207;28;20059;-49
2024/03/06 04:09:52;;;;;;;3.88;1.63;;;;;;;;;;2081067;28;20059;-51
2024/03/06 04:10:54;;;;;;;2.50;1.33;;;;;;;;;;2080753;28;20159;-50
2024/03/06 04:11:55;;;;;;;2.90;1.30;;;;;;;;;;2081075;28;20472;-49
2024/03/06 04:12:58;;;;;;;3.20;1.42;;;;;;;;;;2080972;28;20025;-49
2024/03/06 04:13:59;;;;;;;2.63;1.42;;;;;;;;;;2080747;28;20029;-48
2024/03/06 04:15:00;;;;;;;4.82;1.80;;;;;;;;;;2080746;28;20017;-47
2024/03/06 04:16:02;;;;;;;3.22;1.52;;;;;;;;;;2074313;28;20499;-52
2024/03/06 04:17:03;;;;;;;3.13;1.52;;;;;;;;;;2078642;28;20026;-49
2024/03/06 04:18:05;;;;;;;2.33;1.30;;;;;;;;;;2080590;28;20392;-51
2024/03/06 04:19:08;;;;;;;2.80;1.42;;;;;;;;;;2080196;28;20025;-45
2024/03/06 04:20:11;;;;;;;5.45;1.60;;;;;;;;;;2080110;28;20026;-47
2024/03/06 04:21:14;;;;;;;4.40;1.40;;;;;;;;;;2080199;28;20100;-49
2024/03/06 04:22:19;;;;;;;3.33;1.60;;;;;;;;;;2079769;28;20025;-50
2024/03/06 04:23:20;;;;;;;3.22;1.30;;;;;;;;;;2080786;28;20096;-49
2024/03/06 04:24:21;;;;;;;2.95;1.35;;;;;;;;;;2080753;28;20030;-49
2024/03/06 04:25:23;;;;;;;2.53;1.40;;;;;;;;;;2079327;28;20039;-48
2024/03/06 04:26:24;;;;;;;2.90;1.60;;;;;;;;;;2080101;28;20361;-45
2024/03/06 04:27:26;;;;;;;2.28;1.23;;;;;;;;;;2080225;28;20013;-49
2024/03/06 04:28:27;;;;;;;2.63;1.55;;;;;;;;;;2079850;28;20021;-48
2024/03/06 04:29:28;;;;;;;1.90;1.40;;;;;;;;;;2080762;28;20127;-44
2024/03/06 04:30:30;;;;;;;3.72;1.50;;;;;;;;;;2080464;28;20096;-47
2024/03/06 04:31:31;;;;;;;3.88;1.33;;;;;;;;;;2080734;28;20029;-48
2024/03/06 04:32:32;;;;;;;3.95;1.52;;;;;;;;;;2080746;28;20044;-48
2024/03/06 04:33:34;;;;;;;2.67;1.10;;;;;;;;;;2080735;28;20013;-49
2024/03/06 04:34:35;;;;;;;3.28;1.58;;;;;;;;;;2080386;28;20044;-50
2024/03/06 04:35:37;;;;;;;3.55;1.40;;;;;;;;;;2080691;28;20021;-49
2024/03/06 04:36:38;;;;;;;3.78;1.30;;;;;;;;;;2080074;28;20459;-49
2024/03/06 04:37:39;;;;;;;3.78;1.63;;;;;;;;;;2080266;28;20092;-47
2024/03/06 04:38:41;;;;;;;5.38;1.75;;;;;;;;;;2088676;28;20025;-49
2024/03/06 04:39:42;;;;;;;2.95;1.48;;;;;;;;;;2083717;28;20025;-49
2024/03/06 04:40:44;;;;;;;2.13;1.30;;;;;;;;;;2077559;28;20447;-50
2024/03/06 04:41:45;;;;;;;3.78;1.30;;;;;;;;;;2079070;28;20036;-51
2024/03/06 04:42:47;;;;;;;2.30;1.20;;;;;;;;;;2079998;28;20148;-50
2024/03/06 04:43:50;;;;;;;3.00;1.20;;;;;;;;;;2080925;28;20472;-44
2024/03/06 04:44:52;;;;;;;1.90;1.02;;;;;;;;;;2080529;28;20006;-43
2024/03/06 04:45:53;;;;;;;1.95;1.30;;;;;;;;;;2080467;28;20061;-43
2024/03/06 04:46:55;;;;;;;2.80;1.17;;;;;;;;;;2080123;28;20483;-42
2024/03/06 04:47:56;;;;;;;3.30;1.75;;;;;;;;;;2080684;28;20070;-42
2024/03/06 04:48:57;;;;;;;1.98;1.15;;;;;;;;;;2080662;28;20025;-43
2024/03/06 04:49:58;;;;;;;2.58;1.23;;;;;;;;;;2080317;28;20040;-43
2024/03/06 04:51:00;;;;;;;2.33;1.10;;;;;;;;;;2080153;28;20030;-44
2024/03/06 04:52:01;;;;;;;3.47;1.33;;;;;;;;;;2079851;28;20466;-43
2024/03/06 04:53:02;;;;;;;3.20;1.65;;;;;;;;;;2080408;28;20033;-43
2024/03/06 04:54:04;;;;;;;4.75;1.55;;;;;;;;;;2080839;28;20026;-44
2024/03/06 04:55:06;;;;;;;4.95;1.30;;;;;;;;;;2080474;28;20021;-45
2024/03/06 04:56:07;;;;;;;4.18;1.65;;;;;;;;;;2079998;28;20496;-45
2024/03/06 04:57:09;;;;;;;2.13;1.20;;;;;;;;;;2079964;28;20033;-44
2024/03/06 04:58:11;;;;;;;4.65;1.73;;;;;;;;;;2080590;28;20017;-43
2024/03/06 04:59:13;;;;;;;4.30;2.00;;;;;;;;;;2080506;28;20018;-44
2024/03/06 05:00:15;;;;;;;3.05;1.23;;;;;;;;;;2079777;28;20030;-44
2024/03/06 05:01:16;;;;;;;2.38;1.30;;;;;;;;;;2081271;28;20033;-42
2024/03/06 05:02:18;;;;;;;3.42;1.30;;;;;;;;;;2081343;28;20420;-43
2024/03/06 05:03:19;;;;;;;2.55;1.40;;;;;;;;;;2081624;28;20034;-42
2024/03/06 05:04:21;;;;;;;3.40;1.45;;;;;;;;;;2080638;28;20510;-44
2024/03/06 05:05:22;;;;;;;3.90;1.58;;;;;;;;;;2080999;28;20026;-44
2024/03/06 05:06:24;;;;;;;2.58;1.42;;;;;;;;;;2081063;28;20521;-44
2024/03/06 05:07:25;;;;;;;3.13;1.30;;;;;;;;;;2081799;28;20045;-45
2024/03/06 05:08:27;;;;;;;3.40;1.58;;;;;;;;;;2082335;28;20029;-44
2024/03/06 05:09:28;;;;;;;2.90;1.60;;;;;;;;;;2080779;28;20017;-44
2024/03/06 05:10:29;;;;;;;1.83;1.15;;;;;;;;;;2080843;28;20052;-44
2024/03/06 05:11:31;;;;;;;2.38;1.27;;;;;;;;;;2081643;28;20426;-44
2024/03/06 05:12:32;;;;;;;4.82;1.67;;;;;;;;;;2082057;28;20360;-44
2024/03/06 05:13:33;;;;;;;3.42;1.48;;;;;;;;;;2081966;28;20029;-44
2024/03/06 05:14:35;;;;;;;2.53;1.30;;;;;;;;;;2082078;28;20037;-45
2024/03/06 05:15:37;;;;;;;4.03;1.10;;;;;;;;;;2081781;28;20029;-45
2024/03/06 05:16:38;;;;;;;5.88;1.48;;;;;;;;;;2081522;28;20022;-53
2024/03/06 05:17:40;;;;;;;2.97;1.30;;;;;;;;;;2082194;28;20460;-53
2024/03/06 05:18:41;;;;;;;2.05;1.23;;;;;;;;;;2082338;28;20025;-54
2024/03/06 05:19:42;;;;;;;2.90;1.25;;;;;;;;;;2082177;28;20025;-47
2024/03/06 05:20:45;;;;;;;3.13;1.50;;;;;;;;;;2082031;28;20563;-50
2024/03/06 05:21:47;;;;;;;3.70;1.48;;;;;;;;;;2081826;28;20030;-53
2024/03/06 05:22:48;;;;;;;3.17;1.40;;;;;;;;;;2081819;28;20506;-52
2024/03/06 05:23:49;;;;;;;2.38;1.30;;;;;;;;;;2079738;28;20026;-52
2024/03/06 05:24:50;;;;;;;4.53;1.40;;;;;;;;;;2078239;28;20504;-52
2024/03/06 05:25:52;;;;;;;2.05;1.30;;;;;;;;;;2076241;28;20480;-50
2024/03/06 05:26:54;;;;;;;3.28;1.10;;;;;;;;;;2080881;28;20037;-52
2024/03/06 05:27:56;;;;;;;3.80;1.52;;;;;;;;;;2080828;28;20057;-53
2024/03/06 05:28:57;;;;;;;3.72;1.10;;;;;;;;;;2081316;28;20013;-53
2024/03/06 05:29:59;;;;;;;3.58;1.70;;;;;;;;;;2083866;28;20046;-53
2024/03/06 05:31:01;;;;;;;2.88;1.00;;;;;;;;;;2074535;28;20041;-53
2024/03/06 05:32:03;;;;;;;3.95;1.35;;;;;;;;;;2078538;28;20439;-52
2024/03/06 05:33:04;;;;;;;2.70;1.25;;;;;;;;;;2076660;28;20121;-53
2024/03/06 05:34:06;;;;;;;3.55;1.50;;;;;;;;;;2088120;28;20443;-44
2024/03/06 05:35:09;;;;;;;5.28;1.45;;;;;;;;;;2081609;28;20060;-43
2024/03/06 05:36:13;;;;;;;3.03;1.40;;;;;;;;;;2083457;28;20076;-43
2024/03/06 05:37:14;;;;;;;3.60;1.25;;;;;;;;;;2082139;28;20014;-43
2024/03/06 05:38:15;;;;;;;3.03;1.15;;;;;;;;;;2086323;28;20100;-44
2024/03/06 05:39:17;;;;;;;3.70;1.10;;;;;;;;;;2082808;28;20021;-43
2024/03/06 05:40:18;;;;;;;2.63;1.38;;;;;;;;;;2080594;28;20025;-42
2024/03/06 05:41:20;;;;;;;2.60;1.25;;;;;;;;;;2080474;28;20513;-41
2024/03/06 05:42:22;;;;;;;6.15;3.17;;;;;;;;;;2081278;28;20033;-43
2024/03/06 05:43:23;;;;;;;2.47;1.20;;;;;;;;;;2082085;28;20075;-43
2024/03/06 05:44:24;;;;;;;2.05;1.35;;;;;;;;;;2081537;28;20025;-44
2024/03/06 05:45:25;;;;;;;1.85;1.13;;;;;;;;;;2081341;28;20020;-43
2024/03/06 05:46:27;;;;;;;2.97;1.10;;;;;;;;;;2081938;28;20109;-44
2024/03/06 05:47:28;;;;;;;2.28;1.30;;;;;;;;;;2081599;28;20022;-42
2024/03/06 05:48:29;;;;;;;3.80;1.45;;;;;;;;;;2081326;28;20403;-42
2024/03/06 05:49:32;;;;;;;3.75;1.50;;;;;;;;;;2081521;28;20009;-50
2024/03/06 05:50:33;;;;;;;3.05;1.40;;;;;;;;;;2081936;28;20030;-51
2024/03/06 05:51:35;;;;;;;5.53;1.50;;;;;;;;;;2076713;28;20041;-50
2024/03/06 05:52:36;;;;;;;2.63;1.38;;;;;;;;;;2075616;28;20556;-50
2024/03/06 05:53:42;;;;;;;3.25;1.38;;;;;;;;;;2081022;28;20514;-50
2024/03/06 05:54:43;;;;;;;4.53;1.40;;;;;;;;;;2081328;28;20077;-51
2024/03/06 05:55:44;;;;;;;3.80;1.30;;;;;;;;;;2081920;28;20021;-43
2024/03/06 05:56:48;;;;;;;2.53;1.30;;;;;;;;;;2081910;28;20048;-51
2024/03/06 05:57:49;;;;;;;4.05;1.48;;;;;;;;;;2077336;28;20503;-51
2024/03/06 05:58:50;;;;;;;3.33;1.17;;;;;;;;;;2073867;28;20112;-52
2024/03/06 05:59:52;;;;;;;2.90;1.38;;;;;;;;;;2081144;28;20357;-52
2024/03/06 06:00:54;;;;;;;2.38;1.30;;;;;;;;;;2081626;28;20413;-51
2024/03/06 06:01:55;;;;;;;2.42;1.35;;;;;;;;;;2081799;28;20143;-45
2024/03/06 06:02:56;;;;;;;3.20;1.55;;;;;;;;;;2081162;28;20037;-48
2024/03/06 06:04:00;;;;;;;3.97;1.42;;;;;;;;;;2081205;28;20087;-50
2024/03/06 06:05:01;;;;;;;2.42;1.33;;;;;;;;;;2073184;28;20033;-51
2024/03/06 06:06:03;;;;;;;4.15;1.88;;;;;;;;;;2079842;28;20024;-52
2024/03/06 06:07:04;;;;;;;2.53;1.15;;;;;;;;;;2081948;28;20028;-50
2024/03/06 06:08:05;;;;;;;1.98;1.42;;;;;;;;;;2081998;28;20594;-52
2024/03/06 06:09:07;;;;;;;2.75;1.30;;;;;;;;;;2081741;28;20026;-50